Time;durP1;ratioP1;P1;durP2;ratioP2;P2;SDS_P1;SDS_P2;PMS_P1;PMS_P2;Temp;Humidity;BMP_temperature;BMP_pressure;BME280_temperature;BME280_humidity;BME280_pressure;Samples;Min_cycle;Max_cycle;Signal;HPM_P1;HPM_P2
2023/12/10 00:02:01;;;;;;;1.63;1.20;;;9.60;98.20;;;;;;5044309;28;20494;-78
2023/12/10 00:04:29;;;;;;;1.60;1.10;;;9.60;98.20;;;;;;5053254;28;20721;-80
2023/12/10 00:06:57;;;;;;;1.60;1.20;;;9.60;98.20;;;;;;5040456;28;20497;-80
2023/12/10 00:09:24;;;;;;;1.60;1.10;;;9.60;98.20;;;;;;5053200;28;20473;-79
2023/12/10 00:11:51;;;;;;;1.60;1.10;;;9.60;98.20;;;;;;5043416;28;20932;-79
2023/12/10 00:14:18;;;;;;;1.60;1.10;;;9.70;98.20;;;;;;5045594;28;20530;-79
2023/12/10 00:16:45;;;;;;;1.60;1.20;;;9.70;98.20;;;;;;5039779;28;20746;-79
2023/12/10 00:19:12;;;;;;;1.60;1.10;;;9.70;98.20;;;;;;5052273;28;20465;-81
2023/12/10 00:21:40;;;;;;;1.70;1.30;;;9.70;98.20;;;;;;5040778;28;20572;-81
2023/12/10 00:24:07;;;;;;;1.63;1.20;;;9.70;98.20;;;;;;5050984;28;20551;-81
2023/12/10 00:26:34;;;;;;;2.77;2.53;;;9.70;98.20;;;;;;5034701;28;20584;-81
2023/12/10 00:29:01;;;;;;;1.60;1.10;;;9.70;98.20;;;;;;5041225;28;20574;-82
2023/12/10 00:31:28;;;;;;;1.60;1.10;;;9.70;98.20;;;;;;5039432;28;20478;-80
2023/12/10 00:33:55;;;;;;;1.60;1.10;;;9.70;98.20;;;;;;5045374;28;20513;-81
2023/12/10 00:36:22;;;;;;;1.70;1.40;;;9.70;98.20;;;;;;5036440;28;20906;-80
2023/12/10 00:38:51;;;;;;;1.60;1.20;;;9.70;98.20;;;;;;5049086;28;20496;-81
2023/12/10 00:41:17;;;;;;;1.60;1.20;;;9.70;98.20;;;;;;5038629;28;20481;-80
2023/12/10 00:43:44;;;;;;;1.60;1.10;;;9.70;98.20;;;;;;5047940;28;20470;-81
2023/12/10 00:46:11;;;;;;;1.63;1.10;;;9.70;98.20;;;;;;5035210;28;20500;-80
2023/12/10 00:48:40;;;;;;;2.10;1.90;;;9.70;98.20;;;;;;5054110;28;20502;-78
2023/12/10 00:51:07;;;;;;;1.63;1.17;;;9.70;98.20;;;;;;5035327;28;20482;-79
2023/12/10 00:53:34;;;;;;;1.67;1.20;;;9.70;98.20;;;;;;5056173;28;20466;-78
2023/12/10 00:56:02;;;;;;;1.60;1.10;;;9.70;98.20;;;;;;5033915;28;20494;-79
2023/12/10 00:58:29;;;;;;;1.60;1.10;;;9.70;98.20;;;;;;5054573;28;20529;-79
2023/12/10 01:00:56;;;;;;;1.60;1.20;;;9.70;98.20;;;;;;5032068;28;20889;-78
2023/12/10 01:03:23;;;;;;;1.60;1.30;;;9.70;98.20;;;;;;5053181;28;20557;-79
2023/12/10 01:05:50;;;;;;;1.60;1.10;;;9.70;98.20;;;;;;5031198;28;20714;-80
2023/12/10 01:08:18;;;;;;;1.67;1.17;;;9.70;98.20;;;;;;5058322;28;20953;-78
2023/12/10 01:10:45;;;;;;;1.60;1.10;;;9.70;98.20;;;;;;5044409;28;20495;-79
2023/12/10 01:13:14;;;;;;;1.60;1.10;;;9.80;98.20;;;;;;5033445;28;20478;-79
2023/12/10 01:15:41;;;;;;;1.60;1.20;;;9.80;98.20;;;;;;5043610;28;20996;-79
2023/12/10 01:18:09;;;;;;;1.60;1.10;;;9.80;98.20;;;;;;5046639;28;20520;-78
2023/12/10 01:20:37;;;;;;;1.63;1.10;;;9.80;98.20;;;;;;5041139;28;20465;-79
2023/12/10 01:23:05;;;;;;;1.63;1.20;;;9.80;98.20;;;;;;5048504;28;20487;-79
2023/12/10 01:25:34;;;;;;;1.60;1.10;;;9.80;98.20;;;;;;5044185;28;20462;-79
2023/12/10 01:28:02;;;;;;;1.60;1.20;;;9.80;98.20;;;;;;5049296;28;20489;-78
2023/12/10 01:30:31;;;;;;;1.60;1.10;;;9.80;98.20;;;;;;5042551;28;20834;-81
2023/12/10 01:32:58;;;;;;;1.67;1.20;;;9.80;98.20;;;;;;5073807;22;20571;-79
2023/12/10 01:35:25;;;;;;;1.60;1.10;;;9.80;98.20;;;;;;5066546;28;20542;-79
2023/12/10 01:37:52;;;;;;;2.63;2.43;;;9.80;98.20;;;;;;5052001;28;20498;-79
2023/12/10 01:40:20;;;;;;;1.70;1.10;;;9.80;98.20;;;;;;5066227;28;20483;-79
2023/12/10 01:42:47;;;;;;;1.60;1.20;;;9.90;98.20;;;;;;5068733;28;20606;-79
2023/12/10 01:45:15;;;;;;;1.60;1.13;;;9.80;98.20;;;;;;5063864;28;20860;-78
2023/12/10 01:47:44;;;;;;;1.60;1.10;;;9.80;98.20;;;;;;5074410;28;20545;-79
2023/12/10 01:50:12;;;;;;;1.60;1.20;;;9.80;98.20;;;;;;5060718;28;20569;-79
2023/12/10 01:52:40;;;;;;;1.70;1.30;;;9.90;98.20;;;;;;5069294;28;21024;-79
2023/12/10 01:55:09;;;;;;;1.60;1.20;;;9.90;98.20;;;;;;5068777;28;20466;-79
2023/12/10 01:57:36;;;;;;;1.60;1.10;;;9.90;98.20;;;;;;5065293;28;20485;-79
2023/12/10 02:00:08;;;;;;;1.60;1.10;;;9.90;98.20;;;;;;5065651;28;20524;-78
2023/12/10 02:02:36;;;;;;;1.60;1.20;;;9.90;98.20;;;;;;5065455;28;20953;-79
2023/12/10 02:05:06;;;;;;;1.60;1.10;;;9.90;98.20;;;;;;5065258;28;20470;-79
2023/12/10 02:07:38;;;;;;;1.63;1.20;;;9.80;98.20;;;;;;5064906;28;20530;-80
2023/12/10 02:10:06;;;;;;;1.60;1.17;;;9.80;98.20;;;;;;5066786;28;20466;-80
2023/12/10 02:12:37;;;;;;;1.60;1.10;;;9.80;98.20;;;;;;5070620;28;20997;-80
2023/12/10 02:15:15;;;;;;;1.60;1.10;;;9.80;98.20;;;;;;5063924;28;20832;-81
2023/12/10 02:17:42;;;;;;;1.60;1.20;;;9.90;98.20;;;;;;5071122;28;20540;-79
2023/12/10 02:20:13;;;;;;;1.60;1.10;;;9.80;98.20;;;;;;5068117;28;20473;-79
2023/12/10 02:22:53;;;;;;;1.60;1.23;;;9.80;98.20;;;;;;5069127;28;20510;-79
2023/12/10 02:25:28;;;;;;;1.60;1.20;;;9.80;98.20;;;;;;5062387;28;20458;-79
2023/12/10 02:28:25;;;;;;;1.70;1.47;;;9.80;98.20;;;;;;5072984;28;20559;-79
2023/12/10 02:30:52;;;;;;;1.70;1.40;;;9.80;98.20;;;;;;5057603;28;20579;-79
2023/12/10 02:33:19;;;;;;;1.60;1.10;;;9.80;98.20;;;;;;5084943;28;20786;-79
2023/12/10 02:35:46;;;;;;;1.60;1.20;;;9.80;98.20;;;;;;5066712;28;20531;-80
2023/12/10 02:38:13;;;;;;;1.60;1.10;;;9.80;98.20;;;;;;5052136;28;20930;-80
2023/12/10 02:40:45;;;;;;;1.60;1.10;;;9.80;98.20;;;;;;5060748;28;20526;-81
2023/12/10 02:46:43;;;;;;;1.63;1.20;;;9.80;98.20;;;;;;4999800;28;21021;-80
2023/12/10 02:49:10;;;;;;;1.60;1.13;;;9.80;98.20;;;;;;5073586;28;20475;-79
2023/12/10 02:51:37;;;;;;;3.20;1.70;;;9.70;98.20;;;;;;5064111;28;20477;-80
2023/12/10 02:54:06;;;;;;;1.60;1.10;;;9.70;98.20;;;;;;5068704;28;20470;-79
2023/12/10 02:56:51;;;;;;;1.60;1.20;;;9.70;98.20;;;;;;5064071;28;20472;-80
2023/12/10 02:59:25;;;;;;;1.60;1.17;;;9.70;98.20;;;;;;5079887;28;20470;-80
2023/12/10 03:01:54;;;;;;;1.60;1.10;;;9.70;98.20;;;;;;5062696;28;20488;-82
2023/12/10 03:04:21;;;;;;;1.60;1.10;;;9.70;98.20;;;;;;5071116;28;20458;-81
2023/12/10 03:06:48;;;;;;;1.60;1.10;;;9.70;98.20;;;;;;5072837;28;21053;-81
2023/12/10 03:09:15;;;;;;;1.60;1.10;;;9.70;98.20;;;;;;5083135;28;20467;-81
2023/12/10 03:11:44;;;;;;;1.60;1.10;;;9.70;98.20;;;;;;5075282;28;20480;-84
2023/12/10 03:14:11;;;;;;;1.60;1.10;;;9.70;98.20;;;;;;5085382;28;20461;-83
2023/12/10 03:16:38;;;;;;;1.60;1.20;;;9.60;98.20;;;;;;5071176;28;20518;-83
2023/12/10 03:19:05;;;;;;;1.60;1.10;;;9.50;98.20;;;;;;5089143;28;20843;-84
2023/12/10 03:21:32;;;;;;;1.60;1.10;;;9.50;98.20;;;;;;5068174;28;20477;-84
2023/12/10 03:23:59;;;;;;;1.60;1.20;;;9.40;98.20;;;;;;5076628;28;20461;-83
2023/12/10 03:26:25;;;;;;;1.60;1.10;;;9.40;98.20;;;;;;5073542;28;20499;-84
2023/12/10 03:28:54;;;;;;;1.60;1.10;;;9.40;98.20;;;;;;5088385;28;20553;-84
2023/12/10 03:31:24;;;;;;;1.60;1.20;;;9.30;98.20;;;;;;5069726;28;20480;-84
2023/12/10 03:33:51;;;;;;;1.60;1.20;;;9.30;98.20;;;;;;5086268;28;20544;-86
2023/12/10 03:36:18;;;;;;;1.60;1.10;;;9.30;98.20;;;;;;5070552;28;20510;-82
2023/12/10 03:38:46;;;;;;;1.60;1.10;;;9.20;98.20;;;;;;5086298;28;20493;-81
2023/12/10 03:41:13;;;;;;;1.60;1.20;;;9.20;98.20;;;;;;5069710;28;20486;-83
2023/12/10 03:43:40;;;;;;;1.63;1.20;;;9.20;98.20;;;;;;5082015;28;20481;-83
2023/12/10 03:46:09;;;;;;;1.60;1.20;;;9.20;98.20;;;;;;5065933;28;20485;-81
2023/12/10 03:48:36;;;;;;;1.60;1.10;;;9.10;98.20;;;;;;5087440;28;20489;-81
2023/12/10 03:51:02;;;;;;;1.60;1.20;;;9.10;98.20;;;;;;5066056;28;20481;-82
2023/12/10 03:53:29;;;;;;;1.60;1.20;;;9.10;98.20;;;;;;5085448;28;20552;-83
2023/12/10 03:55:56;;;;;;;1.60;1.27;;;9.10;98.20;;;;;;5062127;28;20492;-82
2023/12/10 03:58:23;;;;;;;1.60;1.10;;;9.00;98.20;;;;;;5076727;28;20481;-83
2023/12/10 04:00:50;;;;;;;1.60;1.10;;;9.00;98.20;;;;;;5062075;28;20496;-83
2023/12/10 04:03:18;;;;;;;1.60;1.10;;;9.00;98.20;;;;;;5083840;28;20553;-83
2023/12/10 04:05:45;;;;;;;1.60;1.10;;;9.00;98.20;;;;;;5074401;28;20492;-83
2023/12/10 04:08:12;;;;;;;1.60;1.10;;;9.00;98.20;;;;;;5080891;28;20498;-81
2023/12/10 04:10:39;;;;;;;1.60;1.20;;;9.00;98.20;;;;;;5072731;28;20525;-81
2023/12/10 04:13:06;;;;;;;1.60;1.20;;;8.90;98.20;;;;;;5076383;28;22208;-81
2023/12/10 04:15:33;;;;;;;1.60;1.10;;;8.90;98.20;;;;;;5071301;28;20557;-80
2023/12/10 04:18:01;;;;;;;1.60;1.10;;;8.90;98.20;;;;;;5054808;28;20554;-81
2023/12/10 04:20:29;;;;;;;1.60;1.20;;;8.90;98.20;;;;;;5070553;28;20461;-80
2023/12/10 04:22:56;;;;;;;1.60;1.10;;;8.90;98.20;;;;;;5077532;28;20500;-80
2023/12/10 04:25:23;;;;;;;1.60;1.10;;;8.90;98.20;;;;;;5068174;28;20557;-81
2023/12/10 04:27:50;;;;;;;1.63;1.20;;;8.90;98.20;;;;;;5057333;28;20564;-81
2023/12/10 04:30:19;;;;;;;1.67;1.20;;;8.90;98.20;;;;;;5069930;28;20493;-79
2023/12/10 04:32:46;;;;;;;1.60;1.13;;;8.90;98.20;;;;;;5075647;28;20468;-80
2023/12/10 04:35:13;;;;;;;1.63;1.30;;;8.90;98.20;;;;;;5070053;28;20933;-80
2023/12/10 04:37:42;;;;;;;1.60;1.20;;;8.90;98.20;;;;;;5075393;28;20575;-79
2023/12/10 04:40:10;;;;;;;1.60;1.20;;;8.90;98.20;;;;;;5069307;28;20465;-81
2023/12/10 04:42:37;;;;;;;1.60;1.17;;;8.90;98.20;;;;;;5052817;28;20776;-81
2023/12/10 04:45:06;;;;;;;1.60;1.10;;;8.90;98.20;;;;;;5067222;28;20473;-80
2023/12/10 04:47:33;;;;;;;1.60;1.20;;;8.90;98.20;;;;;;5067664;28;20504;-80
2023/12/10 04:50:02;;;;;;;1.60;1.20;;;8.90;98.20;;;;;;5068768;28;20910;-81
2023/12/10 04:52:29;;;;;;;1.60;1.10;;;8.90;98.20;;;;;;5071500;28;20502;-79
2023/12/10 04:54:58;;;;;;;1.60;1.20;;;8.90;98.20;;;;;;5066590;28;21033;-80
2023/12/10 04:57:26;;;;;;;1.60;1.20;;;9.00;98.20;;;;;;5067909;28;20556;-80
2023/12/10 04:59:53;;;;;;;1.63;1.20;;;9.00;98.20;;;;;;5071071;28;20525;-80
2023/12/10 05:02:20;;;;;;;1.60;1.20;;;9.00;98.20;;;;;;5066877;28;20987;-80
2023/12/10 05:04:46;;;;;;;1.60;1.20;;;9.00;98.20;;;;;;5070085;28;21043;-79
2023/12/10 05:07:13;;;;;;;1.60;1.10;;;9.00;98.20;;;;;;5070060;28;20559;-80
2023/12/10 05:09:41;;;;;;;1.60;1.20;;;9.00;98.20;;;;;;5071826;28;20453;-80
2023/12/10 05:12:09;;;;;;;1.60;1.20;;;9.10;98.20;;;;;;5068061;28;20540;-79
2023/12/10 05:14:36;;;;;;;1.60;1.23;;;9.10;98.20;;;;;;5068576;28;20553;-79
2023/12/10 05:17:03;;;;;;;1.63;1.10;;;9.20;98.20;;;;;;5066376;28;20496;-80
2023/12/10 05:19:30;;;;;;;1.67;1.20;;;9.20;98.20;;;;;;5073156;28;20507;-79
2023/12/10 05:21:57;;;;;;;1.70;1.30;;;9.20;98.20;;;;;;5064935;28;20547;-80
2023/12/10 05:24:24;;;;;;;1.60;1.20;;;9.20;98.20;;;;;;5073876;28;20984;-79
2023/12/10 05:26:51;;;;;;;1.60;1.20;;;9.20;98.20;;;;;;5052862;28;20885;-79
2023/12/10 05:29:19;;;;;;;1.60;1.20;;;9.20;98.20;;;;;;5065298;28;20520;-79
2023/12/10 05:31:46;;;;;;;1.60;1.30;;;9.30;98.20;;;;;;5065691;28;20563;-79
2023/12/10 05:34:13;;;;;;;1.60;1.20;;;9.30;98.20;;;;;;5073980;28;20457;-79
2023/12/10 05:36:45;;;;;;;1.60;1.20;;;9.30;98.20;;;;;;5063725;28;20473;-79
2023/12/10 05:39:12;;;;;;;1.60;1.20;;;9.30;98.20;;;;;;5079764;28;20462;-79
2023/12/10 05:41:39;;;;;;;1.60;1.20;;;9.30;98.20;;;;;;5062654;28;21162;-79
2023/12/10 05:44:06;;;;;;;1.60;1.20;;;9.30;98.20;;;;;;5073005;28;20552;-82
2023/12/10 05:46:34;;;;;;;1.60;1.20;;;9.30;98.20;;;;;;5059746;28;20552;-80
2023/12/10 05:49:01;;;;;;;1.63;1.20;;;9.40;98.20;;;;;;5079815;28;20837;-83
2023/12/10 05:51:28;;;;;;;1.67;1.30;;;9.40;98.20;;;;;;5067673;28;20562;-80
2023/12/10 05:53:55;;;;;;;1.60;1.13;;;9.40;98.20;;;;;;5083526;28;20743;-82
2023/12/10 05:56:22;;;;;;;1.60;1.10;;;9.40;98.20;;;;;;5062652;28;21022;-79
2023/12/10 05:58:49;;;;;;;1.60;1.10;;;9.40;98.20;;;;;;5080947;28;20540;-83
2023/12/10 06:01:16;;;;;;;1.60;1.20;;;9.40;98.20;;;;;;5061564;28;20535;-83
2023/12/10 06:03:44;;;;;;;1.60;1.10;;;9.40;98.20;;;;;;5083144;28;21002;-80
2023/12/10 06:06:12;;;;;;;1.60;1.10;;;9.40;98.20;;;;;;5064045;28;20615;-84
2023/12/10 06:08:39;;;;;;;1.80;1.10;;;9.40;98.20;;;;;;5086705;28;20461;-83
2023/12/10 06:11:06;;;;;;;1.60;1.10;;;9.50;98.20;;;;;;5063359;28;20891;-82
2023/12/10 06:13:32;;;;;;;1.60;1.20;;;9.50;98.20;;;;;;5082517;28;20505;-78
2023/12/10 06:16:01;;;;;;;1.67;1.20;;;9.50;98.20;;;;;;5061989;28;20462;-81
2023/12/10 06:18:29;;;;;;;1.60;1.13;;;9.50;98.20;;;;;;5086478;28;20474;-79
2023/12/10 06:20:57;;;;;;;1.60;1.30;;;9.50;98.20;;;;;;5064013;28;20495;-78
2023/12/10 06:23:24;;;;;;;1.60;1.10;;;9.50;98.20;;;;;;5089913;28;20469;-83
2023/12/10 06:25:51;;;;;;;1.60;1.20;;;9.50;98.20;;;;;;5067094;28;20460;-83
2023/12/10 06:28:18;;;;;;;1.60;1.17;;;9.50;98.20;;;;;;5090126;28;20461;-81
2023/12/10 06:30:45;;;;;;;1.60;1.10;;;9.50;98.20;;;;;;5074746;28;20527;-80
2023/12/10 06:33:12;;;;;;;1.60;1.10;;;9.50;98.20;;;;;;5061571;28;20506;-84
2023/12/10 06:35:39;;;;;;;1.60;1.10;;;9.50;98.20;;;;;;5076319;28;20905;-85
2023/12/10 06:38:07;;;;;;;1.60;1.10;;;9.50;98.20;;;;;;5081557;28;20491;-84
2023/12/10 06:40:34;;;;;;;1.60;1.20;;;9.50;98.20;;;;;;5075427;28;20489;-80
2023/12/10 06:43:01;;;;;;;1.60;1.10;;;9.60;98.20;;;;;;5076835;28;20504;-82
2023/12/10 06:45:28;;;;;;;1.60;1.20;;;9.50;98.20;;;;;;5066323;28;20783;-81
2023/12/10 06:47:55;;;;;;;1.60;1.10;;;9.50;98.20;;;;;;5061164;28;20496;-81
2023/12/10 06:50:22;;;;;;;1.60;1.10;;;9.60;98.20;;;;;;5076944;28;20476;-81
2023/12/10 06:52:49;;;;;;;4.43;2.03;;;9.60;98.20;;;;;;5069604;28;21039;-80
2023/12/10 06:55:18;;;;;;;1.60;1.20;;;9.60;98.20;;;;;;5076392;28;20469;-80
2023/12/10 06:57:44;;;;;;;1.60;1.10;;;9.60;98.20;;;;;;5068147;28;20511;-82
2023/12/10 07:00:13;;;;;;;1.60;1.20;;;9.60;98.20;;;;;;5077691;28;20488;-83
2023/12/10 07:02:40;;;;;;;2.17;1.97;;;9.60;98.20;;;;;;5063787;28;21036;-81
2023/12/10 07:05:07;;;;;;;1.60;1.10;;;9.60;98.20;;;;;;5076076;28;20465;-80
2023/12/10 07:07:34;;;;;;;1.60;1.20;;;9.60;98.20;;;;;;5065628;28;20509;-82
2023/12/10 07:10:01;;;;;;;1.60;1.20;;;9.60;98.20;;;;;;5078255;28;20612;-82
2023/12/10 07:12:30;;;;;;;1.60;1.30;;;9.60;98.20;;;;;;5066327;28;20473;-78
2023/12/10 07:14:56;;;;;;;1.70;1.40;;;9.60;98.20;;;;;;5077208;28;20469;-80
2023/12/10 07:17:23;;;;;;;1.60;1.10;;;9.60;98.20;;;;;;5063226;28;21035;-80
2023/12/10 07:19:50;;;;;;;1.60;1.10;;;9.60;98.20;;;;;;5075962;28;20465;-80
2023/12/10 07:22:18;;;;;;;1.60;1.10;;;9.60;98.20;;;;;;5062607;28;20465;-77
2023/12/10 07:24:45;;;;;;;1.60;1.13;;;9.60;98.20;;;;;;5074521;28;20457;-79
2023/12/10 07:27:12;;;;;;;1.60;1.20;;;9.70;98.20;;;;;;5064297;28;20481;-79
2023/12/10 07:29:40;;;;;;;1.60;1.10;;;9.70;98.20;;;;;;5075697;28;20482;-80
2023/12/10 07:32:07;;;;;;;1.60;1.10;;;9.70;98.20;;;;;;5064470;28;20569;-79
2023/12/10 07:34:34;;;;;;;1.60;1.17;;;9.70;98.20;;;;;;5077054;28;20499;-78
2023/12/10 07:37:01;;;;;;;1.60;1.10;;;9.70;98.20;;;;;;5063876;28;21027;-79
2023/12/10 07:39:28;;;;;;;1.60;1.20;;;9.70;98.20;;;;;;5073621;28;20457;-79
2023/12/10 07:41:55;;;;;;;1.60;1.10;;;9.70;98.20;;;;;;5061448;28;20485;-78
2023/12/10 07:44:23;;;;;;;1.60;1.10;;;9.70;98.20;;;;;;5071839;28;20530;-78
2023/12/10 07:46:51;;;;;;;1.60;1.10;;;9.70;98.20;;;;;;5061838;28;20910;-82
2023/12/10 07:49:18;;;;;;;1.60;1.20;;;9.70;98.20;;;;;;5075827;28;20458;-80
2023/12/10 07:51:45;;;;;;;1.60;1.10;;;9.70;98.20;;;;;;5066673;28;20626;-77
2023/12/10 07:54:11;;;;;;;1.60;1.30;;;9.70;98.20;;;;;;5073610;28;20500;-78
2023/12/10 07:56:39;;;;;;;1.60;1.20;;;9.70;98.20;;;;;;5058730;28;20479;-77
2023/12/10 07:59:06;;;;;;;1.60;1.10;;;9.70;98.20;;;;;;5071791;28;20238;-79
2023/12/10 08:01:33;;;;;;;1.60;1.10;;;9.70;98.20;;;;;;5065986;28;20493;-77
2023/12/10 08:04:02;;;;;;;1.60;1.10;;;9.70;98.20;;;;;;5074196;28;20484;-82
2023/12/10 08:06:30;;;;;;;1.60;1.10;;;9.70;98.20;;;;;;5061299;28;20476;-81
2023/12/10 08:08:57;;;;;;;1.60;1.20;;;9.70;98.20;;;;;;5075382;28;20559;-80
2023/12/10 08:11:24;;;;;;;1.80;1.40;;;9.70;98.20;;;;;;5070490;28;20563;-78
2023/12/10 08:13:52;;;;;;;1.60;1.10;;;9.70;98.20;;;;;;5087245;28;20544;-78
2023/12/10 08:16:19;;;;;;;3.00;2.50;;;9.70;98.20;;;;;;5058940;28;20636;-78
2023/12/10 08:18:47;;;;;;;1.60;1.10;;;9.70;98.20;;;;;;5074532;28;20552;-79
2023/12/10 08:21:16;;;;;;;1.60;1.20;;;9.70;98.20;;;;;;5063105;28;20477;-81
2023/12/10 08:23:43;;;;;;;1.60;1.10;;;9.70;98.20;;;;;;5076227;28;20473;-78
2023/12/10 08:26:10;;;;;;;1.70;1.10;;;9.70;98.20;;;;;;5064093;28;20485;-79
2023/12/10 08:28:38;;;;;;;1.60;1.10;;;9.70;98.20;;;;;;5075018;28;20461;-82
2023/12/10 08:31:05;;;;;;;1.60;1.10;;;9.70;98.20;;;;;;5063611;28;20901;-78
2023/12/10 08:33:32;;;;;;;1.60;1.20;;;9.70;98.20;;;;;;5073819;28;20516;-80
2023/12/10 08:36:06;;;;;;;1.60;1.20;;;9.70;98.20;;;;;;5063509;28;20548;-76
2023/12/10 08:38:34;;;;;;;1.60;1.10;;;9.70;98.20;;;;;;5084948;28;20469;-81
2023/12/10 08:41:01;;;;;;;1.60;1.10;;;9.70;98.20;;;;;;5058326;28;20473;-83
2023/12/10 08:43:30;;;;;;;1.60;1.10;;;9.70;98.20;;;;;;5074143;28;20489;-78
2023/12/10 08:45:57;;;;;;;1.60;1.20;;;9.70;98.20;;;;;;5060342;28;20743;-80
2023/12/10 08:48:24;;;;;;;1.60;1.10;;;9.70;98.20;;;;;;5071265;28;20890;-82
2023/12/10 08:50:51;;;;;;;1.60;1.20;;;9.70;98.20;;;;;;5063832;28;20454;-81
2023/12/10 08:53:18;;;;;;;1.60;1.10;;;9.70;98.20;;;;;;5069145;28;20520;-77
2023/12/10 08:55:48;;;;;;;1.60;1.10;;;9.70;98.20;;;;;;5074756;28;20458;-81
2023/12/10 08:58:15;;;;;;;1.60;1.30;;;9.70;98.20;;;;;;5061183;28;20465;-80
2023/12/10 09:00:42;;;;;;;1.60;1.10;;;9.70;98.20;;;;;;5075053;28;20555;-78
2023/12/10 09:03:10;;;;;;;1.60;1.10;;;9.80;98.20;;;;;;5058295;28;20505;-80
2023/12/10 09:05:37;;;;;;;1.60;1.20;;;9.80;98.20;;;;;;5074404;28;20484;-81
2023/12/10 09:08:05;;;;;;;1.60;1.10;;;9.80;98.20;;;;;;5057560;28;20508;-78
2023/12/10 09:10:33;;;;;;;1.60;1.10;;;9.80;98.20;;;;;;5073018;28;20883;-77
2023/12/10 09:13:01;;;;;;;1.60;1.10;;;9.80;98.20;;;;;;5062134;28;20480;-79
2023/12/10 09:15:28;;;;;;;1.60;1.20;;;9.80;98.20;;;;;;5069395;28;20917;-78
2023/12/10 09:17:55;;;;;;;1.60;1.20;;;9.80;98.20;;;;;;5071392;28;20563;-77
2023/12/10 09:20:22;;;;;;;1.60;1.13;;;9.80;98.20;;;;;;5068811;28;20469;-77
2023/12/10 09:22:49;;;;;;;1.60;1.10;;;9.80;98.20;;;;;;5062012;28;20504;-79
2023/12/10 09:25:17;;;;;;;1.60;1.20;;;9.80;98.20;;;;;;5070314;28;20484;-78
2023/12/10 09:27:44;;;;;;;1.60;1.20;;;9.80;98.20;;;;;;5060782;28;20485;-77
2023/12/10 09:30:14;;;;;;;1.60;1.20;;;9.90;98.20;;;;;;5074693;28;20485;-79
2023/12/10 09:32:41;;;;;;;1.70;1.20;;;9.90;98.20;;;;;;5058809;28;20485;-78
2023/12/10 09:35:09;;;;;;;1.60;1.20;;;9.90;98.20;;;;;;5072547;28;20473;-77
2023/12/10 09:37:37;;;;;;;1.60;1.23;;;10.00;98.20;;;;;;5062891;28;20469;-78
2023/12/10 09:40:04;;;;;;;1.60;1.10;;;10.00;98.20;;;;;;5072876;28;20465;-82
2023/12/10 09:42:31;;;;;;;1.60;1.10;;;10.10;98.20;;;;;;5059422;28;20493;-79
2023/12/10 09:44:58;;;;;;;3.20;3.00;;;10.10;98.20;;;;;;5075368;28;20948;-79
2023/12/10 09:47:27;;;;;;;1.60;1.23;;;10.10;98.20;;;;;;5059959;28;20571;-81
2023/12/10 09:49:55;;;;;;;1.60;1.20;;;10.20;98.20;;;;;;5077426;28;20497;-82
2023/12/10 09:52:23;;;;;;;1.60;1.10;;;10.20;98.20;;;;;;5064551;28;21051;-79
2023/12/10 09:54:53;;;;;;;1.60;1.10;;;10.20;98.20;;;;;;5072359;28;20481;-78
2023/12/10 09:57:22;;;;;;;1.60;1.10;;;10.20;98.20;;;;;;5089725;28;20500;-79
2023/12/10 09:59:49;;;;;;;1.60;1.10;;;10.30;98.20;;;;;;5078959;28;20585;-78
2023/12/10 10:02:17;;;;;;;1.60;1.20;;;10.30;98.20;;;;;;5064170;28;20488;-78
2023/12/10 10:04:45;;;;;;;1.60;1.10;;;10.40;98.20;;;;;;5074084;28;20996;-78
2023/12/10 10:07:13;;;;;;;1.60;1.30;;;10.40;98.20;;;;;;5069011;28;20473;-79
2023/12/10 10:09:40;;;;;;;1.60;1.10;;;10.50;98.20;;;;;;5076246;28;21085;-79
2023/12/10 10:12:08;;;;;;;1.60;1.10;;;10.50;98.20;;;;;;5064446;28;20500;-78
2023/12/10 10:14:35;;;;;;;1.60;1.10;;;10.60;98.20;;;;;;5075555;28;20564;-79
2023/12/10 10:17:04;;;;;;;1.60;1.10;;;10.60;98.20;;;;;;5062836;28;20507;-77
2023/12/10 10:19:31;;;;;;;1.60;1.10;;;10.70;98.20;;;;;;5074661;28;20462;-79
2023/12/10 10:22:03;;;;;;;1.60;1.13;;;10.70;98.20;;;;;;5062885;28;20515;-78
2023/12/10 10:24:32;;;;;;;1.60;1.10;;;10.70;98.20;;;;;;5074807;28;20461;-81
2023/12/10 10:27:01;;;;;;;1.60;1.10;;;10.70;98.20;;;;;;5065737;28;20559;-80
2023/12/10 10:29:28;;;;;;;1.63;1.20;;;10.80;98.20;;;;;;5075907;28;20458;-79
2023/12/10 10:31:58;;;;;;;1.60;1.10;;;10.80;98.20;;;;;;5066767;28;20506;-79
2023/12/10 10:34:25;;;;;;;1.60;1.20;;;10.80;98.20;;;;;;5071107;28;20593;-77
2023/12/10 10:36:55;;;;;;;1.70;1.10;;;10.80;98.20;;;;;;5080143;28;20476;-79
2023/12/10 10:39:49;;;;;;;1.60;1.20;;;10.80;98.20;;;;;;5079488;28;20834;-76
2023/12/10 10:42:22;;;;;;;1.60;1.20;;;10.80;98.20;;;;;;5055618;28;20521;-81
2023/12/10 10:44:49;;;;;;;1.63;1.20;;;10.80;98.20;;;;;;5056409;28;20462;-78
2023/12/10 10:47:18;;;;;;;1.60;1.10;;;10.80;98.20;;;;;;5064005;28;21089;-77
2023/12/10 10:49:48;;;;;;;1.60;1.00;;;10.90;98.20;;;;;;5073365;28;20455;-79
2023/12/10 10:52:21;;;;;;;1.60;1.10;;;11.00;98.20;;;;;;5062356;28;20488;-79
2023/12/10 10:54:53;;;;;;;1.60;1.10;;;11.00;98.20;;;;;;5079372;28;20485;-79
2023/12/10 10:57:29;;;;;;;1.67;1.20;;;11.00;98.20;;;;;;5061185;28;20577;-79
2023/12/10 10:59:56;;;;;;;1.60;1.00;;;11.00;98.20;;;;;;5072500;28;20481;-79
2023/12/10 11:02:23;;;;;;;1.60;1.10;;;11.00;98.20;;;;;;5067215;28;21001;-77
2023/12/10 11:04:51;;;;;;;1.60;1.20;;;11.00;98.20;;;;;;5075773;28;20457;-76
2023/12/10 11:07:25;;;;;;;1.60;1.20;;;11.00;98.20;;;;;;5064873;28;20512;-77
2023/12/10 11:09:59;;;;;;;1.60;1.10;;;11.00;98.20;;;;;;5073458;28;20457;-78
2023/12/10 11:12:51;;;;;;;1.60;1.00;;;10.90;98.20;;;;;;5061869;28;20482;-78
2023/12/10 11:15:26;;;;;;;1.60;1.10;;;10.90;98.20;;;;;;5073745;28;20474;-76
2023/12/10 11:17:54;;;;;;;1.60;1.00;;;11.00;98.20;;;;;;5069736;28;20473;-78
2023/12/10 11:20:35;;;;;;;1.60;1.10;;;11.00;98.20;;;;;;5071247;28;20465;-76
2023/12/10 11:23:04;;;;;;;1.60;1.10;;;11.10;98.20;;;;;;5061577;28;20496;-76
2023/12/10 11:25:33;;;;;;;1.60;1.10;;;11.20;98.20;;;;;;5072573;28;20493;-77
2023/12/10 11:28:07;;;;;;;1.70;1.40;;;11.30;98.20;;;;;;5058038;28;20918;-78
2023/12/10 11:30:35;;;;;;;1.60;1.10;;;11.30;98.20;;;;;;5072747;28;20457;-77
2023/12/10 11:33:02;;;;;;;1.60;1.10;;;11.40;98.20;;;;;;5057992;28;20517;-78
2023/12/10 11:35:29;;;;;;;1.60;1.10;;;11.50;98.20;;;;;;5072095;28;20515;-78
2023/12/10 11:37:56;;;;;;;1.60;1.10;;;11.50;98.20;;;;;;5081325;28;20548;-78
2023/12/10 11:40:24;;;;;;;1.60;1.10;;;11.50;98.20;;;;;;5067326;28;20519;-77
2023/12/10 11:42:53;;;;;;;1.60;1.10;;;11.60;98.20;;;;;;5059089;28;20513;-75
2023/12/10 11:45:20;;;;;;;1.63;1.10;;;11.50;98.20;;;;;;5070732;28;20454;-76
2023/12/10 11:47:48;;;;;;;1.60;1.20;;;11.60;98.20;;;;;;5056072;28;20482;-77
2023/12/10 11:50:15;;;;;;;1.60;1.10;;;11.60;98.20;;;;;;5066241;28;20549;-78
2023/12/10 11:52:43;;;;;;;1.70;1.33;;;11.60;98.20;;;;;;5057225;28;20485;-76
2023/12/10 11:55:10;;;;;;;1.60;1.10;;;11.60;98.20;;;;;;5070979;28;20485;-76
2023/12/10 11:57:44;;;;;;;1.60;1.10;;;11.60;98.20;;;;;;5059418;28;20469;-77
2023/12/10 12:00:14;;;;;;;1.60;1.00;;;11.70;98.20;;;;;;5066477;28;20553;-77
2023/12/10 12:02:43;;;;;;;1.60;1.03;;;11.80;98.20;;;;;;5058328;28;21047;-78
2023/12/10 12:05:12;;;;;;;1.60;1.00;;;11.80;98.20;;;;;;5074477;28;20450;-77
2023/12/10 12:07:41;;;;;;;1.60;1.00;;;11.90;98.20;;;;;;5059101;28;20477;-75
2023/12/10 12:10:11;;;;;;;1.60;1.10;;;11.90;98.20;;;;;;5066853;28;20576;-77
2023/12/10 12:12:40;;;;;;;1.67;1.20;;;11.90;98.20;;;;;;5057752;28;20500;-76
2023/12/10 12:15:11;;;;;;;2.00;1.80;;;11.90;98.20;;;;;;5069117;28;20545;-75
2023/12/10 12:17:43;;;;;;;1.80;1.10;;;11.90;98.20;;;;;;5055885;28;20481;-76
2023/12/10 12:20:22;;;;;;;1.60;1.00;;;11.90;98.20;;;;;;5066533;28;20458;-77
2023/12/10 12:22:54;;;;;;;1.60;1.00;;;11.90;98.20;;;;;;5061980;28;20953;-77
2023/12/10 12:25:23;;;;;;;1.60;1.07;;;11.80;98.20;;;;;;5070356;28;20532;-78
2023/12/10 12:27:51;;;;;;;1.60;1.10;;;11.80;98.20;;;;;;5060386;28;20486;-77
2023/12/10 12:30:23;;;;;;;1.60;1.10;;;11.80;98.20;;;;;;5072634;28;20476;-78
2023/12/10 12:32:52;;;;;;;1.60;1.07;;;11.80;98.20;;;;;;5065450;28;20498;-77
2023/12/10 12:35:20;;;;;;;1.60;1.10;;;11.80;98.20;;;;;;5084921;28;20549;-79
2023/12/10 12:37:52;;;;;;;1.60;1.00;;;11.70;98.20;;;;;;5066715;28;20509;-77
2023/12/10 12:40:20;;;;;;;1.60;1.10;;;11.70;98.20;;;;;;5071782;28;20454;-80
2023/12/10 12:42:48;;;;;;;1.60;1.10;;;11.70;98.20;;;;;;5062962;28;20524;-78
2023/12/10 12:45:15;;;;;;;1.60;1.10;;;11.70;98.20;;;;;;5075999;28;20485;-77
2023/12/10 12:47:43;;;;;;;1.70;1.50;;;11.60;98.20;;;;;;5063522;28;20481;-79
2023/12/10 12:50:13;;;;;;;1.60;1.00;;;11.60;98.20;;;;;;5078517;28;20438;-75
2023/12/10 12:52:40;;;;;;;1.60;1.10;;;11.60;98.20;;;;;;5065210;28;20461;-78
2023/12/10 12:55:07;;;;;;;1.60;1.10;;;11.60;98.20;;;;;;5075168;28;20891;-75
2023/12/10 12:57:35;;;;;;;1.60;1.20;;;11.60;98.20;;;;;;5065402;28;20485;-80
2023/12/10 13:00:04;;;;;;;1.60;1.13;;;11.50;98.20;;;;;;5079564;28;20758;-79
2023/12/10 13:02:32;;;;;;;1.60;1.20;;;11.50;98.20;;;;;;5072220;28;20482;-79
2023/12/10 13:04:59;;;;;;;1.60;1.10;;;11.50;98.20;;;;;;5078000;28;21268;-75